Chandler Heights, Arizona
Current Conditions -  °F | °C
As of 6:47 PM on Friday 19 Dec 2014 (Local Time) from KIWA Reporting Station
Clear Clear  
Wind Chill: 54°   Ceiling: Unl
Heat Index: 54°   Visibility: 20mi
Dew Point: 39°   Wind: 5mph
Humidity: 58%   Direction: 250°WSW
Pressure: 30.16"   Gusts: NA
Location:  33.21°N, 111.69°W
Report Text: KIWA 200147Z 25004KT 20SM SKC 12/04 A3016
Loading
Personal Weather Stations






























Interactive Weather Map New forecast layout! Learn more

10-Day Weather Forecast

Advertisements
Track Severe Weather on mobile